• Join FlightAware (Why Join?)
  • Login
  • US Flag 
08:00AM EDT


 

Airport Tracker/Info


-or-


 

Live Flight TrackerFlight Track Log ✈ COA1502 ✈ 08-Apr-2009 ✈ KEWR - KLAX

Flight Track Log - Related Links

Times and Time Zones

All times are in EDT time to prevent confusion due to time zone crossing. See the COA1502 flight status page for this flight to view local times or setup timezone preferences in your user account.

Time Position Orientation Groundspeed Altitude Reporting Facility
EDT Latitude Longitude Course Direction KTS MPH feet Rate Location/Type
08:29PM 40.6500 -74.1833 246° West 195 224 1,500  Level New York TRACON
08:30PM 40.6300 -74.2192 287° West 34,000 1,740 Climbing New York Center
08:30PM 40.6333 -74.2333 291° West 229 264 3,100 -29,640 Descending New York TRACON
08:31PM 40.6508 -74.2942 267° West 229 264 5,400 2,880 Climbing New York Center
08:31PM 40.6500 -74.3167 293° West 231 266 6,000 2,340 Climbing New York TRACON
08:32PM 40.6692 -74.3772 309° West 252 290 7,800 3,060 Climbing New York Center
08:32PM 40.6833 -74.4000 279° West 255 293 9,100 2,700 Climbing New York TRACON
08:33PM 40.6931 -74.4797 294° West 253 291 10,600 2,040 Climbing New York Center
08:33PM 40.7000 -74.5000 280° West 268 308 11,200 1,920 Climbing New York TRACON
08:34PM 40.7089 -74.5653 284° West 281 323 12,600 1,980 Climbing New York Center
08:35PM 40.7303 -74.6761 284° West 294 338 14,900 2,220 Climbing New York Center
08:36PM 40.7517 -74.7869 283° West 306 352 17,000 1,260 Climbing New York Center
08:37PM 40.7725 -74.9086 284° West 323 372 17,400 1,320 Climbing New York Center
08:38PM 40.7953 -75.0281 276° West 329 379 19,700 1,980 Climbing New York Center
08:39PM 40.8053 -75.1519 255° West 339 390 21,500 1,680 Climbing New York Center
08:40PM 40.7797 -75.2792 255° West 344 396 23,100 1,500 Climbing New York Center
08:41PM 40.7517 -75.4142 257° West 365 420 24,600 5,400 Climbing New York Center
08:42PM 40.7297 -75.5442 255° West 370 426 34,000 1,320 Climbing New York Center
08:43PM 40.7011 -75.6817 254° West 381 438 27,300 -2,820 Descending New York Center
08:44PM 40.6700 -75.8247 256° West 392 451 28,400 1,020 Climbing New York Center
08:45PM 40.6403 -75.9864 280° West 411 473 29,400 960 Climbing New York Center
08:46PM 40.6606 -76.1386 280° West 411 473 30,400 900 Climbing New York Center
08:47PM 40.6806 -76.2878 280° West 417 480 31,300 780 Climbing New York Center
08:48PM 40.7006 -76.4428 277° West 429 494 32,000 960 Climbing New York Center
08:49PM 40.7142 -76.5892 280° West 429 494 33,300 960 Climbing New York Center
08:50PM 40.7356 -76.7444 279° West 424 488 34,000 300 Climbing New York Center
08:51PM 40.7531 -76.8939 280° West 424 488 34,000  Level New York Center
08:52PM 40.7722 -77.0436 278° West 419 482 34,000  Level New York Center
08:53PM 40.7892 -77.1958 279° West 419 482 34,000  Level New York Center
08:54PM 40.8033 -77.3178 275° West 419 482 34,000  Level New York Center
08:54PM 40.8086 -77.3925 278° West 421 484 34,000  Level Cleveland Center
08:55PM 40.8250 -77.5428 278° West 416 479 34,000  Level Cleveland Center
08:56PM 40.8417 -77.7011 278° West 426 490 34,000  Level Cleveland Center
08:57PM 40.8581 -77.8542 278° West 426 490 34,000  Level Cleveland Center
08:58PM 40.8742 -78.0100 279° West 426 490 34,000  Level Cleveland Center
08:59PM 40.8922 -78.1658 281° West 426 490 34,000  Level Cleveland Center
09:00PM 40.9142 -78.3217 277° West 426 490 34,000  Level Cleveland Center
09:01PM 40.9275 -78.4753 277° West 426 490 34,000  Level Cleveland Center
09:02PM 40.9428 -78.6314 277° West 426 490 34,000  Level Cleveland Center
09:03PM 40.9578 -78.7850 277° West 426 490 34,000  Level Cleveland Center
09:04PM 40.9725 -78.9386 277° West 426 490 34,000  Level Cleveland Center
09:05PM 40.9872 -79.0894 276° West 426 490 34,000  Level Cleveland Center
09:06PM 40.9994 -79.2433 277° West 426 490 34,000  Level Cleveland Center
09:07PM 41.0136 -79.3969 277° West 426 490 34,000  Level Cleveland Center
09:08PM 41.0278 -79.5456 276° West 421 484 34,000  Level Cleveland Center
09:09PM 41.0394 -79.6967 278° West 421 484 34,000  Level Cleveland Center
09:10PM 41.0550 -79.8481 276° West 421 484 34,000  Level Cleveland Center
09:11PM 41.0664 -79.9992 277° West 421 484 34,000  Level Cleveland Center
09:12PM 41.0772 -80.1231 276° West 427 491 34,000  Level Cleveland Center
09:13PM 41.0925 -80.3075 276° West 427 491 34,000  Level Cleveland Center
09:14PM 41.1053 -80.4592 276° West 427 491 34,000  Level Cleveland Center
09:15PM 41.1178 -80.6106 276° West 427 491 34,000  Level Cleveland Center
09:16PM 41.1322 -80.7817 276° West 427 491 34,000  Level Cleveland Center
09:17PM 41.1444 -80.9306 276° West 427 491 34,000  Level Cleveland Center
09:18PM 41.1564 -81.0850 276° West 422 486 34,000  Level Cleveland Center
09:19PM 41.1681 -81.2369 276° West 422 486 34,000  Level Cleveland Center
09:20PM 41.1794 -81.3914 274° West 422 486 34,000  Level Cleveland Center
09:21PM 41.1869 -81.5239 276° West 422 486 34,000  Level Cleveland Center
09:22PM 41.1981 -81.6758 275° West 422 486 34,000  Level Cleveland Center
09:23PM 41.2089 -81.8278 274° West 427 491 34,000  Level Cleveland Center
09:24PM 41.2175 -81.9853 276° West 427 491 34,000  Level Cleveland Center
09:25PM 41.2319 -82.1569 275° West 427 491 34,000  Level Cleveland Center
09:26PM 41.2422 -82.3089 275° West 427 491 34,000  Level Cleveland Center
09:27PM 41.2525 -82.4639 275° West 422 486 34,000  Level Cleveland Center
09:28PM 41.2622 -82.6161 274° West 428 493 34,000  Level Cleveland Center
09:29PM 41.2700 -82.7683 276° West 423 487 34,000  Level Cleveland Center
09:30PM 41.2797 -82.9014 274° West 418 481 34,000  Level Cleveland Center
09:31PM 41.2869 -83.0536 275° West 418 481 34,000  Level Cleveland Center
09:32PM 41.2978 -83.2228 274° West 418 481 34,000  Level Cleveland Center
09:33PM 41.3050 -83.3556 275° West 423 487 34,000  Level Cleveland Center
09:34PM 41.3139 -83.5053 276° West 416 479 34,000  Level Cleveland Center
09:35PM 41.3247 -83.6525 273° West 411 473 34,000  Level Cleveland Center
09:36PM 41.3308 -83.8019 274° West 405 466 34,000  Level Cleveland Center
09:37PM 41.3392 -83.9464 273° West 405 466 34,000  Level Cleveland Center
09:38PM 41.3467 -84.1128 276° West 405 466 34,000  Level Cleveland Center
09:39PM 41.3572 -84.2461 273° West 405 466 34,000  Level Cleveland Center
09:40PM 41.3592 -84.2975 274° West 397 457 34,000  Level Chicago Center
09:41PM 41.3675 -84.4436 273° West 386 444 34,000  Level Chicago Center
09:42PM 41.3739 -84.5925 273° West 386 444 34,000  Level Chicago Center
09:43PM 41.3797 -84.7361 273° West 391 450 34,000  Level Chicago Center
09:44PM 41.3858 -84.8853 273° West 397 457 34,000  Level Chicago Center
09:45PM 41.3914 -85.0317 274° West 402 463 34,000  Level Chicago Center
09:46PM 41.3983 -85.1614 273° West 402 463 34,000  Level Chicago Center
09:47PM 41.4033 -85.3050 272° West 402 463 34,000  Level Chicago Center
09:48PM 41.4064 -85.4489 275° West 397 457 34,000  Level Chicago Center
09:49PM 41.4158 -85.6061 272° West 397 457 34,000  Level Chicago Center
09:50PM 41.4203 -85.7469 272° West 397 457 34,000  Level Chicago Center
09:51PM 41.4247 -85.8908 272° West 392 451 34,000  Level Chicago Center
09:52PM 41.4289 -86.0292 273° West 380 437 34,000  Level Chicago Center
09:53PM 41.4347 -86.1675 272° West 380 437 34,000  Level Chicago Center
09:54PM 41.4386 -86.3058 273° West 380 437 34,000  Level Chicago Center
09:55PM 41.4444 -86.4467 271° West 380 437 34,000  Level Chicago Center
09:56PM 41.4453 -86.5686 272° West 380 437 34,000  Level Chicago Center
09:57PM 41.4486 -86.7097 271° West 374 430 34,000  Level Chicago Center
09:58PM 41.4497 -86.8456 273° West 374 430 34,000  Level Chicago Center
09:59PM 41.4547 -86.9811 273° West 374 430 34,000  Level Chicago Center
10:00PM 41.4594 -87.1167 271° West 374 430 34,000  Level Chicago Center
10:01PM 41.4619 -87.2550 273° West 374 430 34,000  Level Chicago Center
10:02PM 41.4667 -87.3908 272° West 374 430 34,000  Level Chicago Center
10:03PM 41.4708 -87.5264 271° West 374 430 34,000  Level Chicago Center
10:04PM 41.4731 -87.6678 272° West 374 430 34,000  Level Chicago Center
10:05PM 41.4769 -87.8006 271° West 374 430 34,000  Level Chicago Center
10:06PM 41.4789 -87.9531 272° West 366 421 34,000  Level Chicago Center
10:07PM 41.4825 -88.0806 272° West 361 415 34,000  Level Chicago Center
10:08PM 41.4861 -88.2217 271° West 367 422 34,000  Level Chicago Center
10:09PM 41.4872 -88.3547 271° West 372 428 34,000  Level Chicago Center
10:10PM 41.4883 -88.4767 272° West 372 428 34,000  Level Chicago Center
10:11PM 41.4914 -88.6097 270° West 366 421 34,000  Level Chicago Center
10:12PM 41.4922 -88.7456 272° West 366 421 34,000  Level Chicago Center
10:13PM 41.4950 -88.8842 271° West 366 421 34,000  Level Chicago Center
10:14PM 41.4975 -89.0172 269° West 366 421 34,000  Level Chicago Center
10:15PM 41.4956 -89.1531 270° West 366 421 34,000  Level Chicago Center
10:16PM 41.4958 -89.2972 271° West 366 421 34,000  Level Chicago Center
10:17PM 41.4981 -89.4303 270° West 366 421 34,000  Level Chicago Center
10:18PM 41.4978 -89.5633 270° West 366 421 34,000  Level Chicago Center
10:19PM 41.4975 -89.6992 270° West 366 421 34,000  Level Chicago Center
10:20PM 41.4969 -89.8350 271° West 366 421 34,000  Level Chicago Center
10:21PM 41.4983 -89.9681 271° West 366 421 34,000  Level Chicago Center
10:22PM 41.4997 -90.1039 268° West 366 421 34,000  Level Chicago Center
10:23PM 41.4967 -90.2369 270° West 366 421 34,000  Level Chicago Center
10:24PM 41.4975 -90.3728 269° West 366 421 34,000  Level Chicago Center
10:25PM 41.4964 -90.5086 270° West 366 421 34,000  Level Chicago Center
10:26PM 41.4969 -90.6444 268° West 366 421 34,000  Level Chicago Center
10:27PM 41.4933 -90.7803 269° West 366 421 34,000  Level Chicago Center
10:28PM 41.4914 -90.9133 270° West 366 421 34,000  Level Chicago Center
10:29PM 41.4917 -91.0519 269° West 366 421 34,000  Level Chicago Center
10:30PM 41.4894 -91.1878 270° West 366 421 34,000  Level Chicago Center
10:31PM 41.4894 -91.3208 269° West 366 421 34,000  Level Chicago Center
10:32PM 41.4872 -91.4372 269° West 361 415 34,000  Level Chicago Center
10:33PM 41.4847 -91.5703 269° West 361 415 34,000  Level Chicago Center
10:34PM 41.4822 -91.7031 270° West 366 421 34,000  Level Chicago Center
10:35PM 41.4817 -91.8306 267° West 361 415 34,000  Level Chicago Center
10:36PM 41.4764 -91.9636 270° West 361 415 34,000  Level Chicago Center
10:37PM 41.4756 -92.0964 269° West 366 421 34,000  Level Chicago Center
10:38PM 41.4742 -92.2322 268° West 366 421 34,000  Level Chicago Center
10:39PM 41.4708 -92.3653 269° West 366 421 34,000  Level Chicago Center
10:40PM 41.4692 -92.5008 269° West 366 421 34,000  Level Chicago Center
10:41PM 41.4675 -92.6367 269° West 366 421 34,000  Level Chicago Center
10:42PM 41.4656 -92.7750 268° West 359 413 34,000  Level Chicago Center
10:43PM 41.4617 -92.9050 267° West 364 419 34,000  Level Chicago Center
10:43PM 41.4569 -92.9603 267° West 34,000  Level Minneapolis Center
10:44PM 41.4533 -93.1042 267° West 34,000  Level Minneapolis Center
10:45PM 41.4494 -93.2314 266° West 34,000  Level Minneapolis Center
10:49PM 41.4222 -93.7869 262° West 361 415 34,000  Level Minneapolis Center
10:50PM 41.4069 -93.9250 262° West 373 429 34,000  Level Minneapolis Center
10:51PM 41.3919 -94.0603 261° West 379 436 34,000  Level Minneapolis Center
10:52PM 41.3764 -94.1956 262° West 379 436 34,000  Level Minneapolis Center
10:53PM 41.3628 -94.3306 260° West 374 430 34,000  Level Minneapolis Center
10:54PM 41.3450 -94.4656 262° West 368 423 34,000  Level Minneapolis Center
10:55PM 41.3311 -94.6006 260° West 368 423 34,000  Level Minneapolis Center
10:56PM 41.3131 -94.7356 261° West 368 423 34,000  Level Minneapolis Center
10:57PM 41.2969 -94.8703 261° West 368 423 34,000  Level Minneapolis Center
10:58PM 41.2806 -95.0022 262° West 368 423 34,000  Level Minneapolis Center
10:59PM 41.2658 -95.1369 261° West 368 423 34,000  Level Minneapolis Center
11:00PM 41.2492 -95.2717 260° West 368 423 34,000  Level Minneapolis Center
11:01PM 41.2322 -95.4061 260° West 368 423 34,000  Level Minneapolis Center
11:02PM 41.2131 -95.5433 264° West 368 423 34,000  Level Minneapolis Center
11:03PM 41.2022 -95.6753 260° West 368 423 34,000  Level Minneapolis Center
11:04PM 41.1847 -95.8122 263° West 374 430 34,000  Level Minneapolis Center
11:05PM 41.1711 -95.9494 259° West 374 430 34,000  Level Minneapolis Center
11:06PM 41.1514 -96.0808 261° West 369 425 34,000  Level Minneapolis Center
11:07PM 41.1356 -96.2178 256° West 369 425 34,000  Level Minneapolis Center
11:08PM 41.1117 -96.3431 260° West 369 425 34,000  Level Minneapolis Center
11:09PM 41.0933 -96.4797 260° West 375 432 34,000  Level Minneapolis Center
11:10PM 41.0747 -96.6164 261° West 375 432 34,000  Level Minneapolis Center
11:11PM 41.0583 -96.7475 259° West 375 432 34,000  Level Minneapolis Center
11:12PM 41.0375 -96.8864 259° West 375 432 34,000  Level Minneapolis Center
11:13PM 41.0186 -97.0200 259° West 375 432 34,000  Level Minneapolis Center
11:14PM 40.9994 -97.1564 261° West 375 432 34,000  Level Minneapolis Center
11:15PM 40.9822 -97.2953 261° West 375 432 34,000  Level Minneapolis Center
11:16PM 40.9669 -97.4261 258° West 380 437 34,000  Level Minneapolis Center
11:17PM 40.9453 -97.5619 259° West 380 437 34,000  Level Minneapolis Center
11:18PM 40.9256 -97.6978 259° West 380 437 34,000  Level Minneapolis Center
11:19PM 40.9056 -97.8336 259° West 380 437 34,000  Level Minneapolis Center
11:20PM 40.8853 -97.9719 259° West 385 443 34,000  Level Minneapolis Center
11:21PM 40.8653 -98.1047 259° West 390 449 34,000  Level Minneapolis Center
11:22PM 40.8447 -98.2431 258° West 385 443 34,000  Level Minneapolis Center
11:22PM 40.8364 -98.2961 257° West 384 442 34,000  Level Denver Center
11:23PM 40.8128 -98.4336 259° West 379 436 34,000  Level Denver Center
11:24PM 40.7931 -98.5706 258° West 379 436 34,000  Level Denver Center
11:25PM 40.7711 -98.7078 259° West 379 436 34,000  Level Denver Center
11:26PM 40.7522 -98.8306 259° West 379 436 34,000  Level Denver Center
11:27PM 40.7319 -98.9675 259° West 379 436 34,000  Level Denver Center
11:28PM 40.7114 -99.1014 258° West 379 436 34,000  Level Denver Center
11:29PM 40.6889 -99.2408 257° West 379 436 34,000  Level Denver Center
11:30PM 40.6661 -99.3750 259° West 379 436 34,000  Level Denver Center
11:31PM 40.6450 -99.5114 259° West 379 436 34,000  Level Denver Center
11:32PM 40.6242 -99.6478 257° West 379 436 34,000  Level Denver Center
11:33PM 40.6006 -99.7817 259° West 379 436 34,000  Level Denver Center
11:34PM 40.5781 -99.9344 258° West 379 436 34,000  Level Denver Center
11:35PM 40.5564 -100.0680 258° West 379 436 34,000  Level Denver Center
11:36PM 40.5361 -100.1900 256° West 379 436 34,000  Level Denver Center
11:37PM 40.5083 -100.3350 259° West 379 436 34,000  Level Denver Center
11:38PM 40.4883 -100.4680 258° West 379 436 34,000  Level Denver Center
11:39PM 40.4658 -100.6010 256° West 379 436 34,000  Level Denver Center
11:40PM 40.4428 -100.7200 257° West 379 436 34,000  Level Denver Center
11:41PM 40.4200 -100.8510 256° West 379 436 34,000  Level Denver Center
11:42PM 40.3917 -100.9970 258° West 379 436 34,000  Level Denver Center
11:43PM 40.3706 -101.1280 256° West 379 436 34,000  Level Denver Center
11:44PM 40.3453 -101.2570 256° West 379 436 34,000  Level Denver Center
11:45PM 40.3214 -101.3790 256° West 379 436 34,000  Level Denver Center
11:46PM 40.2944 -101.5230 257° West 379 436 34,000  Level Denver Center
11:47PM 40.2708 -101.6560 255° West 379 436 34,000  Level Denver Center
11:48PM 40.2447 -101.7830 257° West 379 436 34,000  Level Denver Center
11:49PM 40.2225 -101.9060 255° West 379 436 34,000  Level Denver Center
11:50PM 40.1928 -102.0520 257° West 379 436 34,000  Level Denver Center
11:51PM 40.1686 -102.1850 254° West 379 436 34,000  Level Denver Center
11:52PM 40.1400 -102.3170 256° West 385 443 34,000  Level Denver Center
11:53PM 40.1172 -102.4380 256° West 385 443 34,000  Level Denver Center
11:54PM 40.0892 -102.5860 258° West 385 443 34,000  Level Denver Center
11:55PM 40.0664 -102.7230 256° West 385 443 34,000 120 Level Denver Center
11:56PM 40.0414 -102.8520 255° West 380 437 34,300 720 Climbing Denver Center
11:57PM 40.0142 -102.9840 254° West 380 437 35,500 840 Climbing Denver Center
11:58PM 39.9867 -103.1130 255° West 379 436 36,000 240 Climbing Denver Center
11:59PM 39.9592 -103.2470 256° West 384 442 36,000  Level Denver Center
12:00AM 39.9339 -103.3830 254° West 384 442 36,000  Level Denver Center
12:01AM 39.9039 -103.5170 256° West 384 442 36,000  Level Denver Center
12:02AM 39.8781 -103.6510 253° West 384 442 36,000  Level Denver Center
12:03AM 39.8481 -103.7820 255° West 384 442 36,000  Level Denver Center
12:04AM 39.8161 -103.9400 254° West 384 442 36,000  Level Denver Center
12:05AM 39.7875 -104.0710 254° West 384 442 36,000  Level Denver Center
12:06AM 39.7589 -104.2040 253° West 384 442 36,000  Level Denver Center
12:07AM 39.7319 -104.3210 254° West 384 442 36,000  Level Denver Center
12:08AM 39.7011 -104.4570 256° West 392 451 36,000  Level Denver Center
12:09AM 39.6764 -104.5900 253° West 392 451 36,000  Level Denver Center
12:10AM 39.6411 -104.7420 254° West 397 457 36,000  Level Denver Center
12:11AM 39.6097 -104.8800 254° West 403 464 36,000  Level Denver Center
12:12AM 39.5803 -105.0160 254° West 398 458 36,000  Level Denver Center
12:13AM 39.5506 -105.1480 254° West 393 452 36,000  Level Denver Center
12:14AM 39.5228 -105.2700 254° West 393 452 36,000  Level Denver Center
12:15AM 39.4928 -105.4020 253° West 393 452 36,000  Level Denver Center
12:16AM 39.4606 -105.5370 254° West 393 452 36,000  Level Denver Center
12:17AM 39.4303 -105.6720 254° West 398 458 36,000  Level Denver Center
12:18AM 39.4000 -105.8070 252° West 398 458 36,000  Level Denver Center
12:19AM 39.3672 -105.9410 253° West 398 458 36,000  Level Denver Center
12:20AM 39.3364 -106.0730 257° West 398 458 36,000  Level Denver Center
12:21AM 39.3119 -106.2070 253° West 398 458 36,000  Level Denver Center
12:22AM 39.2744 -106.3610 253° West 398 458 36,000  Level Denver Center
12:23AM 39.2433 -106.4950 253° West 393 452 36,000  Level Denver Center
12:24AM 39.2142 -106.6150 252° West 399 459 36,000  Level Denver Center
12:25AM 39.1825 -106.7440 253° West 399 459 36,000  Level Denver Center
12:26AM 39.1486 -106.8880 252° West 393 452 36,000  Level Denver Center
12:27AM 39.1147 -107.0220 254° West 393 452 36,000  Level Denver Center
12:28AM 39.0892 -107.1390 252° West 383 441 36,000  Level Denver Center
12:29AM 39.0550 -107.2720 252° West 383 441 36,000  Level Denver Center
12:30AM 39.0183 -107.4160 253° West 388 447 36,000  Level Denver Center
12:31AM 38.9858 -107.5520 253° West 388 447 36,000  Level Denver Center
12:32AM 38.9575 -107.6690 251° West 388 447 36,000  Level Denver Center
12:33AM 38.9228 -107.8020 253° West 393 452 36,000  Level Denver Center
12:34AM 38.8875 -107.9480 251° West 393 452 36,000  Level Denver Center
12:35AM 38.8525 -108.0780 244° Southwest 393 452 36,000  Level Denver Center
12:36AM 38.8092 -108.1940 245° Southwest 398 458 36,000  Level Denver Center
12:37AM 38.7633 -108.3210 244° Southwest 398 458 36,000  Level Denver Center
12:38AM 38.7089 -108.4610 244° Southwest 398 458 36,000  Level Denver Center
12:39AM 38.6608 -108.5870 243° Southwest 398 458 36,000  Level Denver Center
12:40AM 38.6125 -108.7100 244° Southwest 398 458 36,000  Level Denver Center
12:41AM 38.5683 -108.8260 244° Southwest 403 464 36,000  Level Denver Center
12:42AM 38.5156 -108.9640 243° Southwest 403 464 36,000  Level Denver Center
12:43AM 38.4647 -109.0930 243° Southwest 403 464 36,000  Level Denver Center
12:44AM 38.4158 -109.2180 243° Southwest 403 464 36,000  Level Denver Center
12:45AM 38.3714 -109.3270 244° Southwest 398 458 36,000  Level Denver Center
12:46AM 38.3178 -109.4680 242° Southwest 404 465 36,000  Level Denver Center
12:47AM 38.2664 -109.5900 243° Southwest 398 458 36,000  Level Denver Center
12:48AM 38.2172 -109.7120 242° Southwest 398 458 36,000  Level Denver Center
12:49AM 38.1725 -109.8210 244° Southwest 398 458 36,000  Level Denver Center
12:50AM 38.1183 -109.9590 242° Southwest 398 458 36,000  Level Denver Center
12:51AM 38.0664 -110.0820 244° Southwest 398 458 36,000  Level Denver Center
12:52AM 38.0186 -110.2070 247° West 398 458 36,000  Level Denver Center
12:53AM 37.9769 -110.3340 242° Southwest 400 460 36,000  Level Denver Center
12:54AM 37.9222 -110.4620 242° Southwest 399 459 36,000  Level Denver Center
12:55AM 37.8744 -110.5750 243° Southwest 399 459 36,000  Level Denver Center
12:56AM 37.8197 -110.7090 242° Southwest 399 459 36,000  Level Denver Center
12:57AM 37.7667 -110.8370 243° Southwest 405 466 36,000  Level Denver Center
12:58AM 37.7161 -110.9600 242° Southwest 405 466 36,000  Level Denver Center
12:59AM 37.6631 -111.0880 241° Southwest 405 466 36,000  Level Denver Center
01:00AM 37.6078 -111.2150 245° Southwest 405 466 36,000  Level Denver Center
01:01AM 37.5633 -111.3380 240° Southwest 416 479 36,000  Level Los Angeles Center
01:02AM 37.5136 -111.4480 240° Southwest 398 458 36,000  Level Los Angeles Center
01:03AM 37.4558 -111.5740 237° Southwest 412 474 36,000  Level Los Angeles Center
01:04AM 37.3936 -111.6950 238° Southwest 419 482 36,000  Level Los Angeles Center
01:05AM 37.3331 -111.8160 238° Southwest 419 482 36,000  Level Los Angeles Center
01:06AM 37.2650 -111.9510 236° Southwest 419 482 36,000  Level Los Angeles Center
01:07AM 37.2022 -112.0690 237° Southwest 419 482 36,000  Level Los Angeles Center
01:08AM 37.1394 -112.1920 237° Southwest 419 482 36,000  Level Los Angeles Center
01:09AM 37.0767 -112.3140 237° Southwest 419 482 36,000  Level Los Angeles Center
01:10AM 37.0136 -112.4370 237° Southwest 424 488 36,000  Level Los Angeles Center
01:11AM 36.9506 -112.5570 237° Southwest 429 494 36,000  Level Los Angeles Center
01:12AM 36.8931 -112.6660 236° Southwest 429 494 36,000  Level Los Angeles Center
01:13AM 36.8297 -112.7830 237° Southwest 421 484 36,000  Level Los Angeles Center
01:14AM 36.7681 -112.9000 238° Southwest 421 484 36,000  Level Los Angeles Center
01:15AM 36.7067 -113.0210 236° Southwest 415 478 36,000  Level Los Angeles Center
01:16AM 36.6447 -113.1370 236° Southwest 415 478 36,000  Level Los Angeles Center
01:17AM 36.5769 -113.2640 236° Southwest 415 478 36,000  Level Los Angeles Center
01:18AM 36.5131 -113.3830 235° Southwest 415 478 36,000  Level Los Angeles Center
01:19AM 36.4528 -113.4910 239° Southwest 420 483 36,000  Level Los Angeles Center
01:20AM 36.3967 -113.6090 234° Southwest 420 483 36,000  Level Los Angeles Center
01:21AM 36.3303 -113.7240 235° Southwest 420 483 36,000  Level Los Angeles Center
01:22AM 36.2636 -113.8420 236° Southwest 420 483 36,000  Level Los Angeles Center
01:23AM 36.1992 -113.9600 237° Southwest 420 483 36,000  Level Los Angeles Center
01:24AM 36.1325 -114.0880 236° Southwest 420 483 36,000  Level Los Angeles Center
01:25AM 36.0675 -114.2070 236° Southwest 420 483 36,000  Level Los Angeles Center
01:26AM 36.0047 -114.3240 235° Southwest 420 483 36,000  Level Los Angeles Center
01:27AM 35.9417 -114.4360 236° Southwest 414 476 36,000  Level Los Angeles Center
01:28AM 35.8806 -114.5480 236° Southwest 414 476 36,000  Level Los Angeles Center
01:29AM 35.8172 -114.6640 236° Southwest 409 471 36,000  Level Los Angeles Center
01:30AM 35.7539 -114.7780 236° Southwest 409 471 36,000  Level Los Angeles Center
01:31AM 35.6925 -114.8890 232° Southwest 404 465 36,000  Level Los Angeles Center
01:32AM 35.6267 -114.9920 229° Southwest 404 465 36,000  Level Los Angeles Center
01:33AM 35.5567 -115.0920 230° Southwest 399 459 36,000 -540 Level Los Angeles Center
01:34AM 35.4867 -115.1930 229° Southwest 394 453 35,000 -1,020 Descending Los Angeles Center
01:35AM 35.4164 -115.2930 228° Southwest 388 447 34,000 -960 Descending Los Angeles Center
01:36AM 35.3397 -115.3980 230° Southwest 393 452 33,100 -960 Descending Los Angeles Center
01:37AM 35.2672 -115.5030 229° Southwest 403 464 32,100 -900 Descending Los Angeles Center
01:38AM 35.1989 -115.6000 228° Southwest 409 471 31,300 -900 Descending Los Angeles Center
01:39AM 35.1200 -115.7070 230° Southwest 420 483 30,300 -660 Descending Los Angeles Center
01:40AM 35.0453 -115.8140 229° Southwest 420 483 30,000 -180 Descending Los Angeles Center
01:41AM 34.9703 -115.9190 230° Southwest 420 483 30,000  Level Los Angeles Center
01:42AM 34.8975 -116.0250 227° Southwest 410 472 30,000  Level Los Angeles Center
01:43AM 34.8181 -116.1290 229° Southwest 410 472 30,000  Level Los Angeles Center
01:44AM 34.7408 -116.2380 229° Southwest 410 472 30,000  Level Los Angeles Center
01:45AM 34.6678 -116.3410 229° Southwest 410 472 30,000 -240 Level Los Angeles Center
01:46AM 34.5903 -116.4490 229° Southwest 415 478 29,600 -720 Descending Los Angeles Center
01:47AM 34.5169 -116.5500 228° Southwest 410 472 28,600 -1,020 Descending Los Angeles Center
01:48AM 34.4433 -116.6500 228° Southwest 410 472 27,600 -1,500 Descending Los Angeles Center
01:49AM 34.3719 -116.7450 229° Southwest 410 472 25,700 -2,040 Descending Los Angeles Center
01:50AM 34.3025 -116.8430 229° Southwest 397 457 23,600 -2,100 Descending Los Angeles Center
01:51AM 34.2353 -116.9350 228° Southwest 385 443 21,600 -2,040 Descending Los Angeles Center
01:52AM 34.2000 -116.9830 227° Southwest 356 410 20,400 -2,040 Descending Southern California TRACON
01:52AM 34.1700 -117.0220 234° Southwest 373 429 19,600 -2,100 Descending Los Angeles Center
01:53AM 34.1333 -117.0830 224° Southwest 347 399 18,300 -1,620 Descending Southern California TRACON
01:53AM 34.1086 -117.1120 247° West 366 421 18,000 -720 Descending Los Angeles Center
01:54AM 34.0833 -117.1830 227° Southwest 336 387 17,600 -1,020 Descending Southern California TRACON
01:54AM 34.0597 -117.2140 258° West 347 399 17,000 -1,800 Descending Los Angeles Center
01:55AM 34.0500 -117.2670 256° West 325 374 16,000 -1,800 Descending Southern California TRACON
01:55AM 34.0400 -117.3170 263° West 316 364 15,200 -1,920 Descending Los Angeles Center
01:56AM 34.0333 -117.3830 269° West 310 357 13,900 -1,800 Descending Southern California TRACON
01:56AM 34.0328 -117.4120 271° West 316 364 13,400 -1,740 Descending Los Angeles Center
01:57AM 34.0333 -117.4830 252° West 304 350 12,000 -1,800 Descending Southern California TRACON
01:57AM 34.0256 -117.5120 261° West 316 364 11,600 -1,140 Descending Los Angeles Center
01:58AM 34.0167 -117.5830 263° West 302 348 10,900 -900 Descending Southern California TRACON
01:58AM 34.0139 -117.6120 253° West 311 358 10,700 -900 Descending Los Angeles Center
01:59AM 34.0000 -117.6670 279° West 275 316 10,200 -900 Descending Southern California TRACON
01:59AM 34.0044 -117.7020 264° West 300 345 9,800 -1,200 Descending Los Angeles Center
02:00AM 34.0000 -117.7500 264° West 253 291 9,000 -1,320 Descending Southern California TRACON
02:00AM 33.9969 -117.7850 251° West 274 315 8,500 -1,140 Descending Los Angeles Center
02:01AM 33.9833 -117.8330 281° West 256 295 7,900 -1,200 Descending Southern California TRACON
02:01AM 33.9894 -117.8700 261° West 268 308 7,300 -1,200 Descending Los Angeles Center
02:02AM 33.9833 -117.9170 268° West 248 285 6,700 -900 Descending Southern California TRACON
02:02AM 33.9822 -117.9500 272° West 257 296 6,400 -840 Descending Los Angeles Center
02:03AM 33.9833 -118.0000 244° Southwest 226 260 5,900 -840 Descending Southern California TRACON
02:03AM 33.9725 -118.0270 260° West 246 283 5,600 -660 Descending Los Angeles Center
02:04AM 33.9667 -118.0670 267° West 224 258 5,200 -720 Descending Southern California TRACON
02:04AM 33.9653 -118.1000 271° West 232 267 4,900 -1,260 Descending Los Angeles Center
02:05AM 33.9667 -118.1670 230° Southwest 229 264 3,700 -1,320 Descending Southern California TRACON
02:05AM 33.9575 -118.1800 260° West 237 273 3,600 -1,380 Descending Los Angeles Center
02:06AM 33.9500 -118.2330 271° West 205 236 2,600 -1,200 Descending Southern California TRACON
02:06AM 33.9503 -118.2470 269° West 232 267 2,400 -900 Descending Los Angeles Center
02:07AM 33.9500 -118.2830 255° West 176 203 1,700 -900 Descending Southern California TRACON
02:07AM 33.9450 -118.3050 282° West 205 236 1,500 -900 Descending Los Angeles Center
02:08AM 33.9500 -118.3330 241° Southwest 153 176 900 -840 Descending Southern California TRACON
02:08AM 33.9400 -118.3550 254° West 177 204 700 -480 Descending Los Angeles Center
02:09AM 33.9333 -118.3830 278° West 151 174 400 -600 Descending Southern California TRACON
02:09AM 33.9367 -118.4120 260° West 160 184 100 27,000 Descending Los Angeles Center
02:10AM 33.9294 -118.4620 263° West 160 184 36,000 17,940 Climbing Los Angeles Center
02:11AM 33.9244 -118.5120 263° West 160 184 36,000  Level Los Angeles Center